sensor_id;sensor_type;location;lat;lon;timestamp;P1;durP1;ratioP1;P2;durP2;ratioP2
63346;SDS011;49472;49.880;8.650;2023-04-03T00:00:02;13.07;;;12.10;;
63346;SDS011;49472;49.880;8.650;2023-04-03T00:02:29;14.70;;;13.30;;
63346;SDS011;49472;49.880;8.650;2023-04-03T00:04:54;14.13;;;13.00;;
63346;SDS011;49472;49.880;8.650;2023-04-03T00:07:19;13.03;;;12.03;;
63346;SDS011;49472;49.880;8.650;2023-04-03T00:09:45;13.60;;;12.40;;
63346;SDS011;49472;49.880;8.650;2023-04-03T00:12:10;13.13;;;12.03;;
63346;SDS011;49472;49.880;8.650;2023-04-03T00:14:35;13.70;;;12.50;;
63346;SDS011;49472;49.880;8.650;2023-04-03T00:17:01;13.90;;;12.80;;
63346;SDS011;49472;49.880;8.650;2023-04-03T00:19:26;18.00;;;13.03;;
63346;SDS011;49472;49.880;8.650;2023-04-03T00:21:51;14.30;;;13.00;;
63346;SDS011;49472;49.880;8.650;2023-04-03T00:24:18;14.60;;;13.60;;
63346;SDS011;49472;49.880;8.650;2023-04-03T00:26:43;13.37;;;12.47;;
63346;SDS011;49472;49.880;8.650;2023-04-03T00:29:09;13.57;;;12.63;;
63346;SDS011;49472;49.880;8.650;2023-04-03T00:31:34;15.97;;;13.80;;
63346;SDS011;49472;49.880;8.650;2023-04-03T00:34:00;13.70;;;12.70;;
63346;SDS011;49472;49.880;8.650;2023-04-03T00:36:25;13.93;;;13.03;;
63346;SDS011;49472;49.880;8.650;2023-04-03T00:38:51;14.17;;;12.90;;
63346;SDS011;49472;49.880;8.650;2023-04-03T00:41:16;15.07;;;13.87;;
63346;SDS011;49472;49.880;8.650;2023-04-03T00:43:41;14.10;;;13.10;;
63346;SDS011;49472;49.880;8.650;2023-04-03T00:46:07;13.73;;;12.70;;
63346;SDS011;49472;49.880;8.650;2023-04-03T00:48:33;15.57;;;14.37;;
63346;SDS011;49472;49.880;8.650;2023-04-03T00:51:03;13.30;;;12.40;;
63346;SDS011;49472;49.880;8.650;2023-04-03T00:53:50;14.93;;;13.70;;
63346;SDS011;49472;49.880;8.650;2023-04-03T00:56:21;12.97;;;12.17;;
63346;SDS011;49472;49.880;8.650;2023-04-03T00:58:50;14.10;;;12.97;;
63346;SDS011;49472;49.880;8.650;2023-04-03T01:01:21;11.93;;;11.13;;
63346;SDS011;49472;49.880;8.650;2023-04-03T01:03:49;13.10;;;12.20;;
63346;SDS011;49472;49.880;8.650;2023-04-03T01:06:16;13.33;;;12.40;;
63346;SDS011;49472;49.880;8.650;2023-04-03T01:08:45;12.40;;;11.60;;
63346;SDS011;49472;49.880;8.650;2023-04-03T01:11:14;13.63;;;12.40;;
63346;SDS011;49472;49.880;8.650;2023-04-03T01:13:39;14.40;;;13.00;;
63346;SDS011;49472;49.880;8.650;2023-04-03T01:16:05;12.17;;;11.47;;
63346;SDS011;49472;49.880;8.650;2023-04-03T01:18:32;12.93;;;11.73;;
63346;SDS011;49472;49.880;8.650;2023-04-03T01:21:07;14.37;;;13.07;;
63346;SDS011;49472;49.880;8.650;2023-04-03T01:23:52;13.43;;;12.00;;
63346;SDS011;49472;49.880;8.650;2023-04-03T01:26:24;13.23;;;12.13;;
63346;SDS011;49472;49.880;8.650;2023-04-03T01:28:51;12.60;;;11.47;;
63346;SDS011;49472;49.880;8.650;2023-04-03T01:31:23;12.90;;;12.00;;
63346;SDS011;49472;49.880;8.650;2023-04-03T01:33:51;11.90;;;11.10;;
63346;SDS011;49472;49.880;8.650;2023-04-03T01:36:19;14.53;;;11.90;;
63346;SDS011;49472;49.880;8.650;2023-04-03T01:38:47;11.73;;;10.90;;
63346;SDS011;49472;49.880;8.650;2023-04-03T01:41:13;12.20;;;11.30;;
63346;SDS011;49472;49.880;8.650;2023-04-03T01:43:38;11.77;;;10.80;;
63346;SDS011;49472;49.880;8.650;2023-04-03T01:46:04;11.80;;;10.90;;
63346;SDS011;49472;49.880;8.650;2023-04-03T01:48:29;12.70;;;11.63;;
63346;SDS011;49472;49.880;8.650;2023-04-03T01:50:55;11.77;;;10.80;;
63346;SDS011;49472;49.880;8.650;2023-04-03T01:53:20;12.93;;;12.00;;
63346;SDS011;49472;49.880;8.650;2023-04-03T01:55:45;11.83;;;10.97;;
63346;SDS011;49472;49.880;8.650;2023-04-03T01:58:11;11.50;;;10.60;;
63346;SDS011;49472;49.880;8.650;2023-04-03T02:00:36;10.67;;;9.90;;
63346;SDS011;49472;49.880;8.650;2023-04-03T02:03:02;11.10;;;10.30;;
63346;SDS011;49472;49.880;8.650;2023-04-03T02:05:27;11.80;;;11.00;;
63346;SDS011;49472;49.880;8.650;2023-04-03T02:07:53;10.60;;;10.00;;
63346;SDS011;49472;49.880;8.650;2023-04-03T02:10:18;9.60;;;9.00;;
63346;SDS011;49472;49.880;8.650;2023-04-03T02:12:43;11.97;;;11.07;;
63346;SDS011;49472;49.880;8.650;2023-04-03T02:15:09;12.00;;;10.93;;
63346;SDS011;49472;49.880;8.650;2023-04-03T02:17:34;9.80;;;9.20;;
63346;SDS011;49472;49.880;8.650;2023-04-03T02:20:00;10.33;;;9.70;;
63346;SDS011;49472;49.880;8.650;2023-04-03T02:22:25;11.60;;;10.73;;
63346;SDS011;49472;49.880;8.650;2023-04-03T02:24:51;10.80;;;10.20;;
63346;SDS011;49472;49.880;8.650;2023-04-03T02:27:16;11.30;;;10.47;;
63346;SDS011;49472;49.880;8.650;2023-04-03T02:29:42;10.13;;;9.43;;
63346;SDS011;49472;49.880;8.650;2023-04-03T02:32:08;9.77;;;9.13;;
63346;SDS011;49472;49.880;8.650;2023-04-03T02:34:33;10.97;;;10.13;;
63346;SDS011;49472;49.880;8.650;2023-04-03T02:36:58;11.67;;;10.87;;
63346;SDS011;49472;49.880;8.650;2023-04-03T02:39:24;10.83;;;10.13;;
63346;SDS011;49472;49.880;8.650;2023-04-03T02:41:49;12.63;;;11.33;;
63346;SDS011;49472;49.880;8.650;2023-04-03T02:44:14;12.17;;;11.07;;
63346;SDS011;49472;49.880;8.650;2023-04-03T02:46:40;12.97;;;11.87;;
63346;SDS011;49472;49.880;8.650;2023-04-03T02:49:05;13.10;;;12.20;;
63346;SDS011;49472;49.880;8.650;2023-04-03T02:51:31;12.10;;;10.97;;
63346;SDS011;49472;49.880;8.650;2023-04-03T02:53:56;12.10;;;11.00;;
63346;SDS011;49472;49.880;8.650;2023-04-03T02:56:22;12.33;;;11.20;;
63346;SDS011;49472;49.880;8.650;2023-04-03T02:58:47;11.37;;;10.67;;
63346;SDS011;49472;49.880;8.650;2023-04-03T03:01:13;12.07;;;11.07;;
63346;SDS011;49472;49.880;8.650;2023-04-03T03:03:39;11.43;;;10.30;;
63346;SDS011;49472;49.880;8.650;2023-04-03T03:06:05;11.03;;;10.10;;
63346;SDS011;49472;49.880;8.650;2023-04-03T03:08:33;12.63;;;11.40;;
63346;SDS011;49472;49.880;8.650;2023-04-03T03:10:59;13.90;;;11.57;;
63346;SDS011;49472;49.880;8.650;2023-04-03T03:13:25;10.60;;;9.73;;
63346;SDS011;49472;49.880;8.650;2023-04-03T03:15:51;11.57;;;10.60;;
63346;SDS011;49472;49.880;8.650;2023-04-03T03:18:16;12.90;;;11.80;;
63346;SDS011;49472;49.880;8.650;2023-04-03T03:20:42;12.63;;;11.37;;
63346;SDS011;49472;49.880;8.650;2023-04-03T03:23:07;11.40;;;10.40;;
63346;SDS011;49472;49.880;8.650;2023-04-03T03:25:32;14.93;;;11.00;;
63346;SDS011;49472;49.880;8.650;2023-04-03T03:27:58;18.50;;;11.20;;
63346;SDS011;49472;49.880;8.650;2023-04-03T03:30:23;12.70;;;11.60;;
63346;SDS011;49472;49.880;8.650;2023-04-03T03:32:48;12.03;;;11.13;;
63346;SDS011;49472;49.880;8.650;2023-04-03T03:35:14;11.50;;;10.80;;
63346;SDS011;49472;49.880;8.650;2023-04-03T03:37:39;12.47;;;11.50;;
63346;SDS011;49472;49.880;8.650;2023-04-03T03:40:05;12.60;;;11.47;;
63346;SDS011;49472;49.880;8.650;2023-04-03T03:42:31;11.80;;;11.00;;
63346;SDS011;49472;49.880;8.650;2023-04-03T03:44:56;11.70;;;11.00;;
63346;SDS011;49472;49.880;8.650;2023-04-03T03:47:21;12.17;;;11.10;;
63346;SDS011;49472;49.880;8.650;2023-04-03T03:49:47;11.13;;;10.13;;
63346;SDS011;49472;49.880;8.650;2023-04-03T03:52:12;11.73;;;10.83;;
63346;SDS011;49472;49.880;8.650;2023-04-03T03:54:37;11.90;;;10.93;;
63346;SDS011;49472;49.880;8.650;2023-04-03T03:57:03;12.20;;;11.30;;
63346;SDS011;49472;49.880;8.650;2023-04-03T03:59:28;11.17;;;10.43;;
63346;SDS011;49472;49.880;8.650;2023-04-03T04:01:53;12.57;;;11.77;;
63346;SDS011;49472;49.880;8.650;2023-04-03T04:04:19;14.53;;;10.93;;
63346;SDS011;49472;49.880;8.650;2023-04-03T04:06:45;12.30;;;11.40;;
63346;SDS011;49472;49.880;8.650;2023-04-03T04:09:10;13.13;;;10.50;;
63346;SDS011;49472;49.880;8.650;2023-04-03T04:11:36;11.53;;;10.73;;
63346;SDS011;49472;49.880;8.650;2023-04-03T04:14:01;11.40;;;10.33;;
63346;SDS011;49472;49.880;8.650;2023-04-03T04:16:27;11.67;;;10.77;;
63346;SDS011;49472;49.880;8.650;2023-04-03T04:18:52;11.70;;;10.70;;
63346;SDS011;49472;49.880;8.650;2023-04-03T04:21:17;10.77;;;10.07;;
63346;SDS011;49472;49.880;8.650;2023-04-03T04:23:43;10.60;;;9.90;;
63346;SDS011;49472;49.880;8.650;2023-04-03T04:26:08;11.90;;;10.80;;
63346;SDS011;49472;49.880;8.650;2023-04-03T04:28:33;15.13;;;10.23;;
63346;SDS011;49472;49.880;8.650;2023-04-03T04:30:58;11.27;;;10.40;;
63346;SDS011;49472;49.880;8.650;2023-04-03T04:33:24;11.63;;;10.60;;
63346;SDS011;49472;49.880;8.650;2023-04-03T04:35:49;11.30;;;10.60;;
63346;SDS011;49472;49.880;8.650;2023-04-03T04:38:15;10.53;;;9.80;;
63346;SDS011;49472;49.880;8.650;2023-04-03T04:40:40;9.53;;;9.03;;
63346;SDS011;49472;49.880;8.650;2023-04-03T04:43:06;11.93;;;10.57;;
63346;SDS011;49472;49.880;8.650;2023-04-03T04:45:31;12.87;;;11.97;;
63346;SDS011;49472;49.880;8.650;2023-04-03T04:47:56;13.37;;;11.00;;
63346;SDS011;49472;49.880;8.650;2023-04-03T04:50:22;10.90;;;10.10;;
63346;SDS011;49472;49.880;8.650;2023-04-03T04:52:47;12.30;;;11.40;;
63346;SDS011;49472;49.880;8.650;2023-04-03T04:55:13;12.70;;;11.80;;
63346;SDS011;49472;49.880;8.650;2023-04-03T04:57:38;12.43;;;11.37;;
63346;SDS011;49472;49.880;8.650;2023-04-03T05:00:04;12.30;;;11.50;;
63346;SDS011;49472;49.880;8.650;2023-04-03T05:02:30;12.07;;;11.03;;
63346;SDS011;49472;49.880;8.650;2023-04-03T05:04:55;13.17;;;10.47;;
63346;SDS011;49472;49.880;8.650;2023-04-03T05:07:21;11.43;;;10.57;;
63346;SDS011;49472;49.880;8.650;2023-04-03T05:09:46;11.13;;;10.10;;
63346;SDS011;49472;49.880;8.650;2023-04-03T05:12:12;15.40;;;11.07;;
63346;SDS011;49472;49.880;8.650;2023-04-03T05:14:37;12.70;;;11.70;;
63346;SDS011;49472;49.880;8.650;2023-04-03T05:17:02;12.07;;;11.00;;
63346;SDS011;49472;49.880;8.650;2023-04-03T05:19:27;11.20;;;10.30;;
63346;SDS011;49472;49.880;8.650;2023-04-03T05:21:53;11.90;;;10.90;;
63346;SDS011;49472;49.880;8.650;2023-04-03T05:24:18;12.10;;;11.40;;
63346;SDS011;49472;49.880;8.650;2023-04-03T05:26:43;16.23;;;10.90;;
63346;SDS011;49472;49.880;8.650;2023-04-03T05:31:43;11.23;;;10.43;;
63346;SDS011;49472;49.880;8.650;2023-04-03T05:34:08;12.30;;;10.83;;
63346;SDS011;49472;49.880;8.650;2023-04-03T05:36:34;14.00;;;11.50;;
63346;SDS011;49472;49.880;8.650;2023-04-03T05:38:59;12.40;;;11.40;;
63346;SDS011;49472;49.880;8.650;2023-04-03T05:41:24;13.20;;;11.30;;
63346;SDS011;49472;49.880;8.650;2023-04-03T05:43:50;12.07;;;10.90;;
63346;SDS011;49472;49.880;8.650;2023-04-03T05:46:16;12.10;;;11.03;;
63346;SDS011;49472;49.880;8.650;2023-04-03T05:48:43;13.53;;;12.13;;
63346;SDS011;49472;49.880;8.650;2023-04-03T05:51:14;13.17;;;12.07;;
63346;SDS011;49472;49.880;8.650;2023-04-03T05:53:41;13.03;;;11.70;;
63346;SDS011;49472;49.880;8.650;2023-04-03T05:56:08;13.80;;;12.60;;
63346;SDS011;49472;49.880;8.650;2023-04-03T05:58:33;16.57;;;13.40;;
63346;SDS011;49472;49.880;8.650;2023-04-03T06:00:59;16.57;;;13.20;;
63346;SDS011;49472;49.880;8.650;2023-04-03T06:03:24;13.77;;;12.77;;
63346;SDS011;49472;49.880;8.650;2023-04-03T06:05:50;14.17;;;12.00;;
63346;SDS011;49472;49.880;8.650;2023-04-03T06:08:15;16.17;;;14.67;;
63346;SDS011;49472;49.880;8.650;2023-04-03T06:10:41;13.80;;;12.83;;
63346;SDS011;49472;49.880;8.650;2023-04-03T06:13:06;15.10;;;13.90;;
63346;SDS011;49472;49.880;8.650;2023-04-03T06:15:32;14.20;;;12.73;;
63346;SDS011;49472;49.880;8.650;2023-04-03T06:17:57;13.90;;;12.80;;
63346;SDS011;49472;49.880;8.650;2023-04-03T06:20:22;13.43;;;12.33;;
63346;SDS011;49472;49.880;8.650;2023-04-03T06:22:49;13.47;;;12.47;;
63346;SDS011;49472;49.880;8.650;2023-04-03T06:25:15;13.43;;;12.33;;
63346;SDS011;49472;49.880;8.650;2023-04-03T06:27:42;13.40;;;12.50;;
63346;SDS011;49472;49.880;8.650;2023-04-03T06:30:08;14.40;;;13.27;;
63346;SDS011;49472;49.880;8.650;2023-04-03T06:32:33;14.63;;;13.13;;
63346;SDS011;49472;49.880;8.650;2023-04-03T06:34:58;14.17;;;13.07;;
63346;SDS011;49472;49.880;8.650;2023-04-03T06:37:25;14.07;;;12.93;;
63346;SDS011;49472;49.880;8.650;2023-04-03T06:39:54;14.27;;;13.07;;
63346;SDS011;49472;49.880;8.650;2023-04-03T06:42:20;14.37;;;13.47;;
63346;SDS011;49472;49.880;8.650;2023-04-03T06:44:46;13.80;;;12.43;;
63346;SDS011;49472;49.880;8.650;2023-04-03T06:47:11;13.70;;;12.80;;
63346;SDS011;49472;49.880;8.650;2023-04-03T06:49:38;14.00;;;13.00;;
63346;SDS011;49472;49.880;8.650;2023-04-03T06:52:04;14.40;;;13.20;;
63346;SDS011;49472;49.880;8.650;2023-04-03T06:54:30;22.37;;;14.07;;
63346;SDS011;49472;49.880;8.650;2023-04-03T06:56:55;14.90;;;13.47;;
63346;SDS011;49472;49.880;8.650;2023-04-03T06:59:21;15.13;;;13.73;;
63346;SDS011;49472;49.880;8.650;2023-04-03T07:01:46;13.33;;;12.53;;
63346;SDS011;49472;49.880;8.650;2023-04-03T07:04:12;14.83;;;13.40;;
63346;SDS011;49472;49.880;8.650;2023-04-03T07:06:37;14.53;;;13.40;;
63346;SDS011;49472;49.880;8.650;2023-04-03T07:09:03;14.23;;;13.07;;
63346;SDS011;49472;49.880;8.650;2023-04-03T07:11:28;18.93;;;14.40;;
63346;SDS011;49472;49.880;8.650;2023-04-03T07:13:53;17.43;;;14.90;;
63346;SDS011;49472;49.880;8.650;2023-04-03T07:16:19;15.50;;;14.30;;
63346;SDS011;49472;49.880;8.650;2023-04-03T07:18:44;16.10;;;14.63;;
63346;SDS011;49472;49.880;8.650;2023-04-03T07:21:10;15.93;;;14.60;;
63346;SDS011;49472;49.880;8.650;2023-04-03T07:23:36;14.17;;;13.17;;
63346;SDS011;49472;49.880;8.650;2023-04-03T07:26:02;14.30;;;13.30;;
63346;SDS011;49472;49.880;8.650;2023-04-03T07:28:27;15.60;;;14.23;;
63346;SDS011;49472;49.880;8.650;2023-04-03T07:30:54;15.63;;;14.13;;
63346;SDS011;49472;49.880;8.650;2023-04-03T07:33:25;15.67;;;14.37;;
63346;SDS011;49472;49.880;8.650;2023-04-03T07:35:51;15.70;;;14.37;;
63346;SDS011;49472;49.880;8.650;2023-04-03T07:38:17;16.07;;;14.60;;
63346;SDS011;49472;49.880;8.650;2023-04-03T07:40:49;15.37;;;14.37;;
63346;SDS011;49472;49.880;8.650;2023-04-03T07:43:16;16.03;;;14.67;;
63346;SDS011;49472;49.880;8.650;2023-04-03T07:45:42;15.73;;;14.70;;
63346;SDS011;49472;49.880;8.650;2023-04-03T07:48:09;16.07;;;14.87;;
63346;SDS011;49472;49.880;8.650;2023-04-03T07:50:35;15.17;;;14.07;;
63346;SDS011;49472;49.880;8.650;2023-04-03T07:53:01;16.27;;;14.80;;
63346;SDS011;49472;49.880;8.650;2023-04-03T07:55:26;14.17;;;13.27;;
63346;SDS011;49472;49.880;8.650;2023-04-03T07:57:52;14.90;;;13.50;;
63346;SDS011;49472;49.880;8.650;2023-04-03T08:00:17;19.07;;;14.50;;
63346;SDS011;49472;49.880;8.650;2023-04-03T08:02:44;14.90;;;13.73;;
63346;SDS011;49472;49.880;8.650;2023-04-03T08:05:15;15.87;;;14.60;;
63346;SDS011;49472;49.880;8.650;2023-04-03T08:07:40;14.87;;;13.67;;
63346;SDS011;49472;49.880;8.650;2023-04-03T08:10:05;15.97;;;14.87;;
63346;SDS011;49472;49.880;8.650;2023-04-03T08:12:31;15.10;;;14.10;;
63346;SDS011;49472;49.880;8.650;2023-04-03T08:14:57;15.17;;;14.00;;
63346;SDS011;49472;49.880;8.650;2023-04-03T08:17:24;15.60;;;14.00;;
63346;SDS011;49472;49.880;8.650;2023-04-03T08:19:51;15.07;;;14.10;;
63346;SDS011;49472;49.880;8.650;2023-04-03T08:22:16;15.43;;;14.37;;
63346;SDS011;49472;49.880;8.650;2023-04-03T08:24:41;16.23;;;14.63;;
63346;SDS011;49472;49.880;8.650;2023-04-03T08:27:07;16.50;;;15.10;;
63346;SDS011;49472;49.880;8.650;2023-04-03T08:29:32;16.80;;;15.67;;
63346;SDS011;49472;49.880;8.650;2023-04-03T08:31:57;15.63;;;14.63;;
63346;SDS011;49472;49.880;8.650;2023-04-03T08:34:23;15.73;;;14.23;;
63346;SDS011;49472;49.880;8.650;2023-04-03T08:36:48;15.23;;;14.07;;
63346;SDS011;49472;49.880;8.650;2023-04-03T08:39:13;16.77;;;15.07;;
63346;SDS011;49472;49.880;8.650;2023-04-03T08:41:40;18.57;;;15.10;;
63346;SDS011;49472;49.880;8.650;2023-04-03T08:44:23;16.60;;;15.27;;
63346;SDS011;49472;49.880;8.650;2023-04-03T08:47:00;16.10;;;15.03;;
63346;SDS011;49472;49.880;8.650;2023-04-03T08:49:35;15.53;;;14.30;;
63346;SDS011;49472;49.880;8.650;2023-04-03T08:52:09;16.00;;;14.90;;
63346;SDS011;49472;49.880;8.650;2023-04-03T08:54:41;15.63;;;14.63;;
63346;SDS011;49472;49.880;8.650;2023-04-03T08:57:15;15.53;;;14.40;;
63346;SDS011;49472;49.880;8.650;2023-04-03T08:59:45;17.00;;;15.77;;
63346;SDS011;49472;49.880;8.650;2023-04-03T09:05:59;16.40;;;15.07;;
63346;SDS011;49472;49.880;8.650;2023-04-03T09:08:13;17.13;;;15.83;;
63346;SDS011;49472;49.880;8.650;2023-04-03T09:11:03;17.37;;;15.67;;
63346;SDS011;49472;49.880;8.650;2023-04-03T09:14:01;16.60;;;15.37;;
63346;SDS011;49472;49.880;8.650;2023-04-03T09:16:47;17.27;;;15.63;;
63346;SDS011;49472;49.880;8.650;2023-04-03T09:19:27;16.30;;;15.20;;
63346;SDS011;49472;49.880;8.650;2023-04-03T09:25:10;16.80;;;15.70;;
63346;SDS011;49472;49.880;8.650;2023-04-03T09:27:49;17.73;;;15.90;;
63346;SDS011;49472;49.880;8.650;2023-04-03T09:30:16;16.47;;;15.00;;
63346;SDS011;49472;49.880;8.650;2023-04-03T09:32:45;16.40;;;15.17;;
63346;SDS011;49472;49.880;8.650;2023-04-03T09:35:23;16.53;;;15.00;;
63346;SDS011;49472;49.880;8.650;2023-04-03T09:37:51;16.53;;;15.23;;
63346;SDS011;49472;49.880;8.650;2023-04-03T09:42:51;16.07;;;15.00;;
63346;SDS011;49472;49.880;8.650;2023-04-03T09:45:34;16.40;;;15.13;;
63346;SDS011;49472;49.880;8.650;2023-04-03T09:48:08;16.83;;;15.40;;
63346;SDS011;49472;49.880;8.650;2023-04-03T09:50:38;16.97;;;15.50;;
63346;SDS011;49472;49.880;8.650;2023-04-03T09:53:39;16.40;;;15.17;;
63346;SDS011;49472;49.880;8.650;2023-04-03T09:58:42;16.37;;;15.27;;
63346;SDS011;49472;49.880;8.650;2023-04-03T10:01:31;16.20;;;15.10;;
63346;SDS011;49472;49.880;8.650;2023-04-03T10:04:04;16.57;;;15.37;;
63346;SDS011;49472;49.880;8.650;2023-04-03T10:06:31;16.90;;;15.70;;
63346;SDS011;49472;49.880;8.650;2023-04-03T10:09:02;17.60;;;16.23;;
63346;SDS011;49472;49.880;8.650;2023-04-03T10:11:30;15.83;;;14.80;;
63346;SDS011;49472;49.880;8.650;2023-04-03T10:13:59;18.97;;;15.93;;
63346;SDS011;49472;49.880;8.650;2023-04-03T10:25:01;16.50;;;15.40;;
63346;SDS011;49472;49.880;8.650;2023-04-03T10:30:47;16.80;;;15.40;;
63346;SDS011;49472;49.880;8.650;2023-04-03T10:39:04;17.07;;;15.70;;
63346;SDS011;49472;49.880;8.650;2023-04-03T10:41:38;16.60;;;15.20;;
63346;SDS011;49472;49.880;8.650;2023-04-03T10:44:30;17.03;;;15.90;;
63346;SDS011;49472;49.880;8.650;2023-04-03T10:52:40;16.63;;;15.50;;
63346;SDS011;49472;49.880;8.650;2023-04-03T10:57:50;17.63;;;16.40;;
63346;SDS011;49472;49.880;8.650;2023-04-03T11:00:29;18.43;;;16.80;;
63346;SDS011;49472;49.880;8.650;2023-04-03T11:02:56;17.13;;;15.87;;
63346;SDS011;49472;49.880;8.650;2023-04-03T11:10:51;18.13;;;16.47;;
63346;SDS011;49472;49.880;8.650;2023-04-03T11:13:35;18.33;;;16.93;;
63346;SDS011;49472;49.880;8.650;2023-04-03T11:16:06;16.73;;;15.63;;
63346;SDS011;49472;49.880;8.650;2023-04-03T11:18:46;18.23;;;16.83;;
63346;SDS011;49472;49.880;8.650;2023-04-03T11:21:19;17.40;;;16.00;;
63346;SDS011;49472;49.880;8.650;2023-04-03T11:23:47;18.90;;;17.50;;
63346;SDS011;49472;49.880;8.650;2023-04-03T11:26:15;17.03;;;15.90;;
63346;SDS011;49472;49.880;8.650;2023-04-03T11:28:45;17.27;;;16.07;;
63346;SDS011;49472;49.880;8.650;2023-04-03T11:33:39;16.87;;;15.70;;
63346;SDS011;49472;49.880;8.650;2023-04-03T11:38:47;17.67;;;16.30;;
63346;SDS011;49472;49.880;8.650;2023-04-03T11:41:17;16.97;;;15.73;;
63346;SDS011;49472;49.880;8.650;2023-04-03T11:44:01;17.67;;;16.47;;
63346;SDS011;49472;49.880;8.650;2023-04-03T11:47:03;17.83;;;16.37;;
63346;SDS011;49472;49.880;8.650;2023-04-03T12:05:48;17.37;;;15.97;;
63346;SDS011;49472;49.880;8.650;2023-04-03T12:08:30;17.30;;;15.83;;
63346;SDS011;49472;49.880;8.650;2023-04-03T12:13:34;16.03;;;15.03;;
63346;SDS011;49472;49.880;8.650;2023-04-03T12:16:26;16.07;;;15.17;;
63346;SDS011;49472;49.880;8.650;2023-04-03T12:21:20;17.97;;;16.40;;
63346;SDS011;49472;49.880;8.650;2023-04-03T12:34:41;17.27;;;16.23;;
63346;SDS011;49472;49.880;8.650;2023-04-03T12:46:15;16.73;;;15.80;;
63346;SDS011;49472;49.880;8.650;2023-04-03T12:48:51;17.40;;;16.33;;
63346;SDS011;49472;49.880;8.650;2023-04-03T12:51:34;18.10;;;16.60;;
63346;SDS011;49472;49.880;8.650;2023-04-03T12:59:46;18.10;;;16.70;;
63346;SDS011;49472;49.880;8.650;2023-04-03T13:02:28;17.83;;;16.65;;
63346;SDS011;49472;49.880;8.650;2023-04-03T13:04:57;17.50;;;16.25;;
63346;SDS011;49472;49.880;8.650;2023-04-03T13:09:59;16.50;;;15.40;;
63346;SDS011;49472;49.880;8.650;2023-04-03T13:12:31;16.30;;;15.30;;
63346;SDS011;49472;49.880;8.650;2023-04-03T13:14:58;16.30;;;15.25;;
63346;SDS011;49472;49.880;8.650;2023-04-03T13:17:29;16.20;;;14.95;;
63346;SDS011;49472;49.880;8.650;2023-04-03T13:19:54;16.10;;;15.13;;
63346;SDS011;49472;49.880;8.650;2023-04-03T13:22:33;15.80;;;14.63;;
63346;SDS011;49472;49.880;8.650;2023-04-03T13:25:04;15.40;;;14.48;;
63346;SDS011;49472;49.880;8.650;2023-04-03T13:27:33;15.38;;;14.38;;
63346;SDS011;49472;49.880;8.650;2023-04-03T13:30:00;15.10;;;14.27;;
63346;SDS011;49472;49.880;8.650;2023-04-03T13:32:27;15.63;;;14.43;;
63346;SDS011;49472;49.880;8.650;2023-04-03T13:34:54;15.20;;;14.30;;
63346;SDS011;49472;49.880;8.650;2023-04-03T13:37:25;15.23;;;14.30;;
63346;SDS011;49472;49.880;8.650;2023-04-03T13:42:33;14.93;;;14.05;;
63346;SDS011;49472;49.880;8.650;2023-04-03T13:45:19;15.13;;;14.07;;
63346;SDS011;49472;49.880;8.650;2023-04-03T13:47:49;16.17;;;15.00;;
63346;SDS011;49472;49.880;8.650;2023-04-03T13:50:19;16.20;;;14.80;;
63346;SDS011;49472;49.880;8.650;2023-04-03T13:52:54;16.73;;;15.50;;
63346;SDS011;49472;49.880;8.650;2023-04-03T13:58:01;17.52;;;15.63;;
63346;SDS011;49472;49.880;8.650;2023-04-03T14:00:35;16.52;;;15.50;;
63346;SDS011;49472;49.880;8.650;2023-04-03T14:03:16;15.02;;;14.13;;
63346;SDS011;49472;49.880;8.650;2023-04-03T14:05:46;15.80;;;14.70;;
63346;SDS011;49472;49.880;8.650;2023-04-03T14:08:11;16.20;;;15.10;;
63346;SDS011;49472;49.880;8.650;2023-04-03T14:10:37;15.80;;;14.70;;
63346;SDS011;49472;49.880;8.650;2023-04-03T14:13:02;14.82;;;13.93;;
63346;SDS011;49472;49.880;8.650;2023-04-03T14:15:28;15.57;;;14.35;;
63346;SDS011;49472;49.880;8.650;2023-04-03T14:17:56;16.88;;;15.23;;
63346;SDS011;49472;49.880;8.650;2023-04-03T14:20:23;15.20;;;14.30;;
63346;SDS011;49472;49.880;8.650;2023-04-03T14:22:50;15.32;;;14.23;;
63346;SDS011;49472;49.880;8.650;2023-04-03T14:25:18;15.27;;;14.32;;
63346;SDS011;49472;49.880;8.650;2023-04-03T14:27:47;15.75;;;14.52;;
63346;SDS011;49472;49.880;8.650;2023-04-03T14:30:25;15.90;;;15.00;;
63346;SDS011;49472;49.880;8.650;2023-04-03T14:33:00;16.38;;;15.10;;
63346;SDS011;49472;49.880;8.650;2023-04-03T14:35:26;14.55;;;13.68;;
63346;SDS011;49472;49.880;8.650;2023-04-03T14:37:53;15.25;;;14.15;;
63346;SDS011;49472;49.880;8.650;2023-04-03T14:40:20;15.77;;;14.40;;
63346;SDS011;49472;49.880;8.650;2023-04-03T14:42:49;15.43;;;14.27;;
63346;SDS011;49472;49.880;8.650;2023-04-03T14:45:15;15.07;;;14.18;;
63346;SDS011;49472;49.880;8.650;2023-04-03T14:47:44;15.30;;;14.40;;
63346;SDS011;49472;49.880;8.650;2023-04-03T14:50:17;14.80;;;14.00;;
63346;SDS011;49472;49.880;8.650;2023-04-03T14:52:46;15.70;;;14.40;;
63346;SDS011;49472;49.880;8.650;2023-04-03T14:55:12;15.57;;;14.40;;
63346;SDS011;49472;49.880;8.650;2023-04-03T14:57:40;16.27;;;15.05;;
63346;SDS011;49472;49.880;8.650;2023-04-03T15:00:07;15.18;;;14.07;;
63346;SDS011;49472;49.880;8.650;2023-04-03T15:02:37;17.73;;;16.30;;
63346;SDS011;49472;49.880;8.650;2023-04-03T15:05:04;17.23;;;15.77;;
63346;SDS011;49472;49.880;8.650;2023-04-03T15:07:34;14.93;;;13.90;;
63346;SDS011;49472;49.880;8.650;2023-04-03T15:10:23;15.45;;;14.48;;
63346;SDS011;49472;49.880;8.650;2023-04-03T15:12:50;14.90;;;13.95;;
63346;SDS011;49472;49.880;8.650;2023-04-03T15:15:17;16.65;;;14.95;;
63346;SDS011;49472;49.880;8.650;2023-04-03T15:17:44;16.35;;;15.15;;
63346;SDS011;49472;49.880;8.650;2023-04-03T15:20:17;15.35;;;14.25;;
63346;SDS011;49472;49.880;8.650;2023-04-03T15:22:43;15.00;;;14.02;;
63346;SDS011;49472;49.880;8.650;2023-04-03T15:25:09;15.90;;;14.45;;
63346;SDS011;49472;49.880;8.650;2023-04-03T15:27:35;15.68;;;14.38;;
63346;SDS011;49472;49.880;8.650;2023-04-03T15:30:02;14.02;;;13.13;;
63346;SDS011;49472;49.880;8.650;2023-04-03T15:32:28;14.88;;;13.82;;
63346;SDS011;49472;49.880;8.650;2023-04-03T15:34:54;15.00;;;13.95;;
63346;SDS011;49472;49.880;8.650;2023-04-03T15:37:20;14.00;;;13.10;;
63346;SDS011;49472;49.880;8.650;2023-04-03T15:39:45;15.05;;;13.70;;
63346;SDS011;49472;49.880;8.650;2023-04-03T15:42:10;15.43;;;14.32;;
63346;SDS011;49472;49.880;8.650;2023-04-03T15:44:37;16.60;;;14.82;;
63346;SDS011;49472;49.880;8.650;2023-04-03T15:47:02;17.00;;;15.52;;
63346;SDS011;49472;49.880;8.650;2023-04-03T15:49:28;14.77;;;13.63;;
63346;SDS011;49472;49.880;8.650;2023-04-03T15:51:53;15.95;;;14.25;;
63346;SDS011;49472;49.880;8.650;2023-04-03T15:54:19;15.13;;;14.07;;
63346;SDS011;49472;49.880;8.650;2023-04-03T15:56:44;13.63;;;12.82;;
63346;SDS011;49472;49.880;8.650;2023-04-03T15:59:09;14.57;;;13.23;;
63346;SDS011;49472;49.880;8.650;2023-04-03T16:01:36;14.48;;;13.57;;
63346;SDS011;49472;49.880;8.650;2023-04-03T16:04:03;14.18;;;13.15;;
63346;SDS011;49472;49.880;8.650;2023-04-03T16:06:28;13.77;;;12.82;;
63346;SDS011;49472;49.880;8.650;2023-04-03T16:08:55;13.40;;;12.40;;
63346;SDS011;49472;49.880;8.650;2023-04-03T16:11:23;13.27;;;12.48;;